createdAt,value
2022-12-04T00:02:31.891Z,20.55
2022-12-04T00:05:09.584Z,20.27
2022-12-04T00:07:44.918Z,21.73
2022-12-04T00:10:14.210Z,27.90
2022-12-04T00:12:49.638Z,18.33
2022-12-04T00:15:25.737Z,32.60
2022-12-04T00:17:58.675Z,27.50
2022-12-04T00:23:05.951Z,21.20
2022-12-04T00:25:37.747Z,22.38
2022-12-04T00:28:18.331Z,22.90
2022-12-04T00:30:52.563Z,20.47
2022-12-04T00:33:19.236Z,21.35
2022-12-04T00:44:57.869Z,22.80
2022-12-04T00:47:32.862Z,29.02
2022-12-04T00:50:11.543Z,24.58
2022-12-04T00:52:44.055Z,23.08
2022-12-04T00:55:21.823Z,20.90
2022-12-04T00:58:03.593Z,30.00
2022-12-04T01:00:42.690Z,19.55
2022-12-04T01:03:10.341Z,25.60
2022-12-04T01:06:01.664Z,34.08
2022-12-04T01:08:40.094Z,26.73
2022-12-04T01:11:16.860Z,25.33
2022-12-04T01:13:54.403Z,21.65
2022-12-04T01:16:47.572Z,23.08
2022-12-04T01:19:31.927Z,30.60
2022-12-04T01:22:10.485Z,21.58
2022-12-04T01:24:57.005Z,29.80
2022-12-04T01:27:38.963Z,23.73
2022-12-04T01:30:14.965Z,22.23
2022-12-04T01:32:54.448Z,32.78
2022-12-04T01:35:21.359Z,22.05
2022-12-04T01:38:21.240Z,31.13
2022-12-04T01:41:32.611Z,30.38
2022-12-04T01:44:12.092Z,22.45
2022-12-04T01:46:56.202Z,23.52
2022-12-04T01:49:30.775Z,23.50
2022-12-04T01:55:29.682Z,25.33
2022-12-04T01:58:09.312Z,23.77
2022-12-04T02:00:39.019Z,20.65
2022-12-04T02:09:27.063Z,30.42
2022-12-04T02:12:16.277Z,29.25
2022-12-04T02:15:01.423Z,25.58
2022-12-04T02:17:46.791Z,26.20
2022-12-04T02:24:08.009Z,26.60
2022-12-04T02:27:00.667Z,22.02
2022-12-04T02:30:10.201Z,20.48
2022-12-04T02:33:18.803Z,34.05
2022-12-04T02:36:07.484Z,24.63
2022-12-04T02:39:05.515Z,23.33
2022-12-04T02:41:57.383Z,26.65
2022-12-04T02:44:38.568Z,26.88
2022-12-04T02:47:18.512Z,35.95
2022-12-04T02:50:06.750Z,24.27
2022-12-04T02:52:57.482Z,20.55
2022-12-04T02:55:57.399Z,25.27
2022-12-04T02:58:46.850Z,30.77
2022-12-04T03:01:28.049Z,24.67
2022-12-04T03:04:31.546Z,22.80
2022-12-04T03:07:09.588Z,31.13
2022-12-04T03:09:48.024Z,24.90
2022-12-04T03:18:42.050Z,25.93
2022-12-04T03:21:21.766Z,28.67
2022-12-04T03:23:57.012Z,20.45
2022-12-04T03:26:42.873Z,24.73
2022-12-04T03:29:23.293Z,31.08
2022-12-04T03:41:18.529Z,28.40
2022-12-04T03:47:40.448Z,24.80
2022-12-04T03:50:40.319Z,17.48
2022-12-04T03:53:32.668Z,28.33
2022-12-04T03:56:14.139Z,28.27
2022-12-04T03:58:46.683Z,28.80
2022-12-04T04:01:27.341Z,22.13
2022-12-04T04:04:10.534Z,27.02
2022-12-04T04:06:52.895Z,35.83
2022-12-04T04:09:24.397Z,25.77
2022-12-04T04:12:31.722Z,25.85
2022-12-04T04:15:12.461Z,26.27
2022-12-04T04:17:51.635Z,24.10
2022-12-04T04:20:35.204Z,26.42
2022-12-04T04:23:07.315Z,17.42
2022-12-04T04:25:51.716Z,37.15
2022-12-04T04:28:39.023Z,27.77
2022-12-04T04:31:41.254Z,24.30
2022-12-04T04:34:28.520Z,19.70
2022-12-04T04:37:39.382Z,24.02
2022-12-04T04:40:45.742Z,22.17
2022-12-04T04:43:37.048Z,23.37
2022-12-04T04:49:26.005Z,25.50
2022-12-04T04:51:56.736Z,18.70
2022-12-04T04:54:28.439Z,26.88
2022-12-04T04:57:13.750Z,20.73
2022-12-04T04:59:49.438Z,22.80
2022-12-04T05:02:16.288Z,29.08
2022-12-04T05:11:42.613Z,26.73
2022-12-04T05:14:59.843Z,23.33
2022-12-04T05:17:29.870Z,21.05
2022-12-04T05:22:50.519Z,20.23
2022-12-04T05:25:58.201Z,22.97
2022-12-04T05:29:11.935Z,25.08
2022-12-04T05:31:56.891Z,26.30
2022-12-04T05:34:45.127Z,30.77
2022-12-04T05:37:17.371Z,19.88
2022-12-04T05:39:56.283Z,19.47
2022-12-04T05:42:37.783Z,35.38
2022-12-04T05:45:26.998Z,29.42
2022-12-04T05:48:01.112Z,29.63
2022-12-04T05:50:27.885Z,25.77
2022-12-04T05:53:09.233Z,34.00
2022-12-04T05:55:41.749Z,30.35
2022-12-04T05:58:18.862Z,26.40
2022-12-04T06:04:27.644Z,32.88
2022-12-04T06:06:54.795Z,24.43
2022-12-04T06:09:42.618Z,27.30
2022-12-04T06:12:14.787Z,26.40
2022-12-04T06:14:59.550Z,25.40
2022-12-04T06:17:26.362Z,25.73
2022-12-04T06:20:29.630Z,24.77
2022-12-04T06:22:56.659Z,25.70
2022-12-04T06:25:39.789Z,29.88
2022-12-04T06:28:23.545Z,31.23
2022-12-04T06:36:15.604Z,23.85
2022-12-04T06:38:42.799Z,28.15
2022-12-04T06:41:26.225Z,27.27
2022-12-04T06:44:16.136Z,23.17
2022-12-04T06:46:56.138Z,23.80
2022-12-04T06:49:38.152Z,22.25
2022-12-04T06:52:04.861Z,27.67
2022-12-04T06:54:46.997Z,28.15
2022-12-04T06:57:27.443Z,28.63
2022-12-04T07:00:16.120Z,28.00
2022-12-04T07:02:53.410Z,28.48
2022-12-04T07:05:20.265Z,22.92
2022-12-04T07:07:58.907Z,24.88
2022-12-04T07:10:36.003Z,34.92
2022-12-04T07:13:47.750Z,24.40
2022-12-04T07:16:25.456Z,22.27
2022-12-04T07:19:03.635Z,27.90
2022-12-04T07:22:20.058Z,35.35
2022-12-04T07:24:52.738Z,14.07
2022-12-04T07:27:30.829Z,22.03
2022-12-04T07:30:09.981Z,28.05
2022-12-04T07:32:44.042Z,23.13
2022-12-04T07:35:10.869Z,26.40
2022-12-04T07:37:39.762Z,27.17
2022-12-04T07:40:24.795Z,20.83
2022-12-04T07:42:51.472Z,20.48
2022-12-04T07:45:19.224Z,20.65
2022-12-04T07:59:56.692Z,23.35
2022-12-04T08:05:19.771Z,29.80
2022-12-04T08:07:49.649Z,30.23
2022-12-04T08:10:34.090Z,32.00
2022-12-04T08:13:06.990Z,33.05
2022-12-04T08:15:37.259Z,27.75
2022-12-04T08:18:22.511Z,28.63
2022-12-04T08:21:15.508Z,19.73
2022-12-04T08:24:14.354Z,22.00
2022-12-04T08:26:44.264Z,30.60
2022-12-04T08:29:20.235Z,19.80
2022-12-04T08:32:34.599Z,25.88
2022-12-04T08:35:03.864Z,25.87
2022-12-04T08:37:40.794Z,32.70
2022-12-04T08:42:48.636Z,22.02
2022-12-04T08:45:21.478Z,21.20
2022-12-04T08:47:52.712Z,25.03
2022-12-04T08:50:36.759Z,33.38
2022-12-04T08:53:16.620Z,22.30
2022-12-04T08:55:47.939Z,22.45
2022-12-04T09:01:44.782Z,20.97
2022-12-04T09:04:11.551Z,23.33
2022-12-04T09:06:38.145Z,24.73
2022-12-04T09:09:04.798Z,20.63
2022-12-04T09:11:31.540Z,23.38
2022-12-04T09:13:58.460Z,28.30
2022-12-04T09:16:25.903Z,28.35
2022-12-04T09:18:52.981Z,22.73
2022-12-04T09:21:21.770Z,23.10
2022-12-04T09:23:48.728Z,23.42
2022-12-04T09:26:21.733Z,24.20
2022-12-04T09:28:49.214Z,21.45
2022-12-04T09:31:16.618Z,24.52
2022-12-04T09:33:43.419Z,21.50
2022-12-04T09:36:10.129Z,22.50
2022-12-04T09:38:36.760Z,23.60
2022-12-04T09:41:30.544Z,22.58
2022-12-04T09:44:03.290Z,25.45
2022-12-04T09:46:37.332Z,22.58
2022-12-04T09:49:19.556Z,23.63
2022-12-04T09:51:47.483Z,21.00
2022-12-04T09:54:20.889Z,19.63
2022-12-04T09:57:03.039Z,28.65
2022-12-04T09:59:32.001Z,21.80
2022-12-04T10:02:37.227Z,22.25
2022-12-04T10:05:05.934Z,23.53
2022-12-04T10:07:42.517Z,19.45
2022-12-04T10:10:39.197Z,17.13
2022-12-04T10:13:43.217Z,18.98
2022-12-04T10:16:34.581Z,24.13
2022-12-04T10:19:14.088Z,25.77
2022-12-04T10:21:59.720Z,17.17
2022-12-04T10:24:41.725Z,18.55
2022-12-04T10:27:17.656Z,20.23
2022-12-04T10:29:52.694Z,17.48
2022-12-04T10:32:26.956Z,17.10
2022-12-04T10:34:57.045Z,17.67
2022-12-04T10:37:24.255Z,22.77
2022-12-04T10:39:57.255Z,18.23
2022-12-04T10:42:37.451Z,18.80
2022-12-04T10:45:06.254Z,17.53
2022-12-04T10:47:34.795Z,19.25
2022-12-04T10:50:05.317Z,27.02
2022-12-04T10:52:31.973Z,17.42
2022-12-04T10:55:00.276Z,29.25
2022-12-04T10:57:39.200Z,18.00
2022-12-04T11:00:28.400Z,24.05
2022-12-04T11:02:58.283Z,17.15
2022-12-04T11:05:45.415Z,23.00
2022-12-04T11:11:16.505Z,14.47
2022-12-04T11:13:43.322Z,16.20
2022-12-04T11:16:32.981Z,15.38
2022-12-04T11:19:18.776Z,10.38
2022-12-04T11:21:46.020Z,16.05
2022-12-04T11:24:36.844Z,28.43
2022-12-04T11:27:38.871Z,17.25
2022-12-04T11:30:18.772Z,15.90
2022-12-04T11:32:47.179Z,14.40
2022-12-04T11:35:26.045Z,19.05
2022-12-04T11:38:17.520Z,19.53
2022-12-04T11:41:03.644Z,13.80
2022-12-04T11:43:31.314Z,13.25
2022-12-04T11:46:05.876Z,17.38
2022-12-04T11:48:45.597Z,15.32
2022-12-04T11:51:43.646Z,21.27
2022-12-04T11:54:44.243Z,14.95
2022-12-04T11:57:20.067Z,9.35
2022-12-04T11:59:49.993Z,11.15
2022-12-04T12:02:54.595Z,15.23
2022-12-04T12:06:01.733Z,19.67
2022-12-04T12:09:08.209Z,14.10
2022-12-04T12:11:42.502Z,14.63
2022-12-04T12:14:21.139Z,21.13
2022-12-04T12:17:06.874Z,15.13
2022-12-04T12:20:01.113Z,10.00
2022-12-04T12:22:42.550Z,15.73
2022-12-04T12:25:33.252Z,17.63
2022-12-04T12:28:21.663Z,11.23
2022-12-04T12:34:22.713Z,12.60
2022-12-04T12:36:56.431Z,13.60
2022-12-04T12:42:28.388Z,12.30
2022-12-04T12:47:49.366Z,13.50
2022-12-04T12:50:36.549Z,16.98
2022-12-04T12:53:13.502Z,23.23
2022-12-04T12:55:58.392Z,9.75
2022-12-04T12:58:54.530Z,13.98
2022-12-04T13:01:21.382Z,17.47
2022-12-04T13:04:36.517Z,12.32
2022-12-04T13:07:33.949Z,10.15
2022-12-04T13:10:44.748Z,14.05
2022-12-04T13:13:32.807Z,22.40
2022-12-04T13:16:03.719Z,10.73
2022-12-04T13:18:40.498Z,13.23
2022-12-04T13:21:08.538Z,10.57
2022-12-04T13:23:41.505Z,12.73
2022-12-04T13:26:43.616Z,14.20
2022-12-04T13:29:45.109Z,12.27
2022-12-04T13:32:29.510Z,13.40
2022-12-04T13:35:15.007Z,11.40
2022-12-04T13:38:07.306Z,13.60
2022-12-04T13:40:39.217Z,7.82
2022-12-04T13:43:25.574Z,11.17
2022-12-04T13:45:54.593Z,13.27
2022-12-04T13:48:51.647Z,15.07
2022-12-04T13:51:40.631Z,11.38
2022-12-04T13:54:16.148Z,12.05
2022-12-04T13:57:07.674Z,10.33
2022-12-04T13:59:37.740Z,10.75
2022-12-04T14:02:22.600Z,14.75
2022-12-04T14:04:53.786Z,21.63
2022-12-04T14:07:35.657Z,11.93
2022-12-04T14:10:30.413Z,13.77
2022-12-04T14:13:14.710Z,12.98
2022-12-04T14:15:41.355Z,13.95
2022-12-04T14:18:13.820Z,17.33
2022-12-04T14:20:42.962Z,22.63
2022-12-04T14:23:15.467Z,18.57
2022-12-04T14:25:42.682Z,10.85
2022-12-04T14:28:29.236Z,11.18
2022-12-04T14:31:07.934Z,10.90
2022-12-04T14:34:18.177Z,10.23
2022-12-04T14:36:47.511Z,11.47
2022-12-04T14:39:36.791Z,10.48
2022-12-04T14:46:06.634Z,8.55
2022-12-04T14:48:36.464Z,11.02
2022-12-04T14:51:23.081Z,13.60
2022-12-04T14:53:59.198Z,13.13
2022-12-04T14:56:55.160Z,17.73
2022-12-04T14:59:26.244Z,14.60
2022-12-04T15:01:55.480Z,11.80
2022-12-04T15:04:32.725Z,10.43
2022-12-04T15:07:00.718Z,9.25
2022-12-04T15:09:28.595Z,12.52
2022-12-04T15:11:58.452Z,14.25
2022-12-04T15:14:25.406Z,11.38
2022-12-04T15:17:03.068Z,11.60
2022-12-04T15:19:29.702Z,15.02
2022-12-04T15:25:27.801Z,15.45
2022-12-04T15:28:05.784Z,13.98
2022-12-04T15:30:36.106Z,17.17
2022-12-04T15:33:03.824Z,14.82
2022-12-04T15:35:35.193Z,15.45
2022-12-04T15:38:02.251Z,10.88
2022-12-04T15:40:30.349Z,16.65
2022-12-04T15:43:16.628Z,16.90
2022-12-04T15:45:45.747Z,14.73
2022-12-04T15:48:25.804Z,17.00
2022-12-04T15:51:02.473Z,18.10
2022-12-04T15:53:33.537Z,20.00
2022-12-04T15:56:06.529Z,18.23
2022-12-04T15:58:44.023Z,20.15
2022-12-04T16:01:13.186Z,20.73
2022-12-04T16:06:46.244Z,28.50
2022-12-04T16:12:33.367Z,19.23
2022-12-04T16:15:04.428Z,21.30
2022-12-04T16:17:32.714Z,16.85
2022-12-04T16:20:00.575Z,21.58
2022-12-04T16:22:27.640Z,19.43
2022-12-04T16:24:57.869Z,20.45
2022-12-04T16:27:37.932Z,27.05
2022-12-04T16:32:50.281Z,18.35
2022-12-04T16:35:17.615Z,19.07
2022-12-04T16:37:44.551Z,19.77
2022-12-04T16:40:17.218Z,24.75
2022-12-04T17:07:50.577Z,18.45
2022-12-04T17:13:40.258Z,20.27
2022-12-04T17:16:07.458Z,23.53
2022-12-04T17:18:37.211Z,20.45
2022-12-04T17:23:39.891Z,23.63
2022-12-04T17:29:09.430Z,18.93
2022-12-04T17:31:36.101Z,22.35
2022-12-04T17:34:16.341Z,21.42
2022-12-04T17:42:36.326Z,19.67
2022-12-04T17:45:03.825Z,18.95
2022-12-04T17:47:30.741Z,20.00
2022-12-04T17:50:00.813Z,25.75
2022-12-04T17:52:30.511Z,17.05
2022-12-04T17:54:57.362Z,16.30
2022-12-04T17:57:24.283Z,22.65
2022-12-04T17:59:52.265Z,18.80
2022-12-04T18:02:18.950Z,16.42
2022-12-04T18:04:49.863Z,21.33
2022-12-04T18:07:17.973Z,19.73
2022-12-04T18:09:45.970Z,17.95
2022-12-04T18:12:12.771Z,22.63
2022-12-04T18:14:40.662Z,18.17
2022-12-04T18:19:48.638Z,17.60
2022-12-04T18:22:49.509Z,17.38
2022-12-04T18:25:16.166Z,19.63
2022-12-04T18:27:44.199Z,21.95
2022-12-04T18:30:19.173Z,14.23
2022-12-04T18:36:05.869Z,15.45
2022-12-04T18:39:09.867Z,18.13
2022-12-04T18:41:36.994Z,17.85
2022-12-04T18:44:03.945Z,15.82
2022-12-04T18:46:30.794Z,18.33
2022-12-04T18:49:07.675Z,22.45
2022-12-04T18:51:42.285Z,18.00
2022-12-04T18:56:58.216Z,15.55
2022-12-04T18:59:31.995Z,16.97
2022-12-04T19:01:58.912Z,17.38
2022-12-04T19:04:27.876Z,19.30
2022-12-04T19:06:56.805Z,18.27
2022-12-04T19:12:11.867Z,18.67
2022-12-04T19:14:38.742Z,16.40
2022-12-04T19:17:05.791Z,19.08
2022-12-04T19:19:33.359Z,19.23
2022-12-04T19:25:42.263Z,19.33
2022-12-04T19:28:33.164Z,14.65
2022-12-04T19:33:35.416Z,20.60
2022-12-04T19:36:18.817Z,17.40
2022-12-04T19:38:45.576Z,24.37
2022-12-04T19:41:17.357Z,20.95
2022-12-04T19:43:49.014Z,22.20
2022-12-04T19:46:20.251Z,20.55
2022-12-04T19:48:47.111Z,18.38
2022-12-04T19:51:16.468Z,20.10
2022-12-04T19:53:48.475Z,18.17
2022-12-04T19:56:22.399Z,23.75
2022-12-04T19:58:51.089Z,21.55
2022-12-04T20:01:24.388Z,21.52
2022-12-04T20:03:51.261Z,25.43
2022-12-04T20:06:21.176Z,19.98
2022-12-04T20:08:52.856Z,22.00
2022-12-04T20:11:19.920Z,19.63
2022-12-04T20:13:48.115Z,25.52
2022-12-04T20:16:17.608Z,22.77
2022-12-04T20:18:48.724Z,20.92
2022-12-04T20:21:17.027Z,23.40
2022-12-04T20:23:54.601Z,27.42
2022-12-04T20:26:28.226Z,14.52
2022-12-04T20:29:02.372Z,16.40
2022-12-04T20:31:33.099Z,22.52
2022-12-04T20:34:02.939Z,23.23
2022-12-04T20:36:31.940Z,23.38
2022-12-04T20:38:59.361Z,23.40
2022-12-04T20:41:27.989Z,20.97
2022-12-04T20:43:55.352Z,22.58
2022-12-04T20:46:26.708Z,22.70
2022-12-04T20:48:54.016Z,22.10
2022-12-04T20:51:27.683Z,22.17
2022-12-04T20:56:34.743Z,21.77
2022-12-04T20:59:04.794Z,22.08
2022-12-04T21:02:05.066Z,21.17
2022-12-04T21:04:41.348Z,19.73
2022-12-04T21:07:08.282Z,21.77
2022-12-04T21:09:45.875Z,22.33
2022-12-04T21:12:12.802Z,23.92
2022-12-04T21:14:39.528Z,21.92
2022-12-04T21:19:53.688Z,21.10
2022-12-04T21:22:20.882Z,22.75
2022-12-04T21:24:47.667Z,22.13
2022-12-04T21:27:21.020Z,21.48
2022-12-04T21:29:51.579Z,21.92
2022-12-04T21:32:19.742Z,21.80
2022-12-04T21:34:46.580Z,20.38
2022-12-04T21:37:14.243Z,25.90
2022-12-04T21:39:42.600Z,19.58
2022-12-04T21:42:09.598Z,20.05
2022-12-04T21:44:36.618Z,21.77
2022-12-04T21:47:03.526Z,21.02
2022-12-04T21:49:30.306Z,22.77
2022-12-04T21:51:58.686Z,22.90
2022-12-04T21:54:27.575Z,22.30
2022-12-04T21:56:55.079Z,24.87
2022-12-04T21:59:50.319Z,21.50
2022-12-04T22:02:17.727Z,20.45
2022-12-04T22:04:44.671Z,23.17
2022-12-04T23:03:49.246Z,23.13
2022-12-04T23:09:46.438Z,24.15
2022-12-04T23:12:19.469Z,23.02
2022-12-04T23:15:00.102Z,22.13
2022-12-04T23:18:14.915Z,21.45
2022-12-04T23:51:17.883Z,19.40
